Terminal Aerodrome Forecast
Issued by NWS

Home | Current Version | Previous Version | Graphics & Text | Print | Product List | Glossary On
Versions: 1 2 3 4 5 6 7 8 9 10 11 12 13 14
000
FTUS43 KICT 011133
TAFRSL
TAF
KRSL 011133Z 0112/0212 18015KT P6SM BKN250
     FM011600 19020G28KT P6SM SCT100 BKN250
     FM020000 18012G20KT P6SM SCT100 BKN250
     FM020200 18012KT P6SM SCT250=

USA.gov is the U.S. government's official web portal to all federal, state and local government web resources and services.